Leconfield, United Kingdom
Current Conditions -  °F | °C
As of 11:50 AM on Sunday 23 Nov 2014 (Local Time) from EGXV Reporting Station
Light Rain Light Rain  
Wind Chill:   Ceiling: 4800
Heat Index:   Visibility: 6mi
Dew Point:   Wind: 3mph
Humidity: 100%   Direction: 270°W
Pressure: 30"   Gusts: NA
Location:  53.88°N, 0.46°W
Report Text: EGXV 231150Z AUTO 27003KT 9999 -RA BKN048/// 08/08 Q1016
Loading
Personal Weather Stations






























Interactive Weather Map New forecast layout! Learn more

10-Day Weather Forecast

Advertisements
Track Severe Weather on mobile